Main page
METAR-TAF:

METAR-TAF

Airports :

Mazar-i-Sharif International Airport

Mazar-i-Sharif, Afghanistan

latitude: 36-42N, longitude: 067-12E, elevation: 378 m

Current weather observation

The report was made 46 minutes ago, at 23:50 UTC
Wind 4 kt from the South/Southwest
Temperature 22°C
Humidity 33%
Pressure 1015 hPa
Visibility 10 km or more
Clear sky

METAR: OAMS 232350Z 21004KT 9999 SKC 22/05 Q1015 BLU+BLU+

Time: 05:06 (00:36 UTC)

Forecast

The report was made 1 hour and 31 minutes ago, at 23:05 UTC
Forecast valid from 24 at 00 UTC to 24 at 24 UTC
Wind 8 kt from the South/Southeast
Visibility 10 km or more
Clear sky
Becoming
from 24 at 04 UTC to 24 at 06 UTC
Wind 14 kt from the Northeast
Visibility: 8000 m
Few clouds at a height of 8000 ft
Becoming
from 24 at 14 UTC to 24 at 16 UTC
Wind 8 kt from the South/Southeast
Visibility 10 km or more
Few clouds at a height of 25000 ft

TAF: OAMS 232305Z 2400/2424 15008KT 9999 NSW SKC BECMG 2404/2406 05014KT 8000 NSW FEW080 BECMG 2414/2416 15008KT 9999 NSW FEW250

Weather observations and forecasts of more than 4000 airports (METAR and TAF reports).

The available stations are represented by yellow and red dots on the map.

Hover mouse over dot to see the name of the station.

Then click to see weather observations and forecasts.

To change the map : click on the green buttons with a black cross to zoom in, on the green button with a dash to zoom out, or on the green arrows for adjacent maps.


METAR-TAF: